Time;durP1;ratioP1;P1;durP2;ratioP2;P2;SDS_P1;SDS_P2;PMS_P1;PMS_P2;Temp;Humidity;BMP_temperature;BMP_pressure;BME280_temperature;BME280_humidity;BME280_pressure;Samples;Min_cycle;Max_cycle;Signal;HPM_P1;HPM_P2
2022/04/20 00:01:23;;;;;;;;;;;;;;;11.13;100.00;99427.97;5053138;28;19935;-75
2022/04/20 00:03:50;;;;;;;;;;;;;;;11.07;100.00;99429.66;5053978;28;20398;-75
2022/04/20 00:06:17;;;;;;;;;;;;;;;11.36;100.00;99433.66;5054358;28;19928;-75
2022/04/20 00:08:44;;;;;;;;;;;;;;;10.83;100.00;99431.53;5054373;28;19924;-75
2022/04/20 00:11:11;;;;;;;;;;;;;;;11.12;100.00;99426.38;5054181;28;19925;-75
2022/04/20 00:13:39;;;;;;;;;;;;;;;11.46;100.00;99431.94;5054029;28;20013;-75
2022/04/20 00:16:06;;;;;;;;;;;;;;;11.45;100.00;99422.75;5053981;28;19978;-75
2022/04/20 00:18:35;;;;;;;;;;;;;;;11.80;100.00;99415.88;5054070;28;20253;-75
2022/04/20 00:21:02;;;;;;;;;;;;;;;11.77;100.00;99416.75;5054176;28;19979;-75
2022/04/20 00:23:29;;;;;;;;;;;;;;;11.10;100.00;99414.84;5053862;28;20019;-75
2022/04/20 00:25:56;;;;;;;;;;;;;;;11.47;100.00;99420.31;5054032;28;20023;-75
2022/04/20 00:28:23;;;;;;;;;;;;;;;11.55;100.00;99419.03;5052947;28;19925;-75
2022/04/20 00:30:50;;;;;;;;;;;;;;;11.84;100.00;99417.41;5052164;28;20398;-75
2022/04/20 00:33:17;;;;;;;;;;;;;;;11.74;100.00;99412.75;5052477;28;19936;-75
2022/04/20 00:35:45;;;;;;;;;;;;;;;11.79;100.00;99415.09;5052580;28;19925;-75
2022/04/20 00:38:13;;;;;;;;;;;;;;;11.73;100.00;99408.38;5052668;28;19924;-75
2022/04/20 00:40:40;;;;;;;;;;;;;;;11.71;100.00;99408.00;5052881;28;19932;-75
2022/04/20 00:43:08;;;;;;;;;;;;;;;11.70;100.00;99409.22;5052623;28;19924;-75
2022/04/20 00:45:35;;;;;;;;;;;;;;;11.09;100.00;99418.81;5052300;28;19925;-75
2022/04/20 00:48:03;;;;;;;;;;;;;;;10.56;100.00;99427.81;5035780;28;19998;-75
2022/04/20 00:50:31;;;;;;;;;;;;;;;9.83;100.00;99426.44;5052468;28;19924;-75
2022/04/20 00:52:58;;;;;;;;;;;;;;;9.87;100.00;99430.00;5053489;28;19932;-75
2022/04/20 00:55:27;;;;;;;;;;;;;;;9.74;100.00;99425.31;5052351;28;20012;-75
2022/04/20 00:57:54;;;;;;;;;;;;;;;10.30;100.00;99416.53;5052305;28;19924;-75
2022/04/20 01:00:21;;;;;;;;;;;;;;;9.60;100.00;99419.84;5052357;28;19932;-75
2022/04/20 01:02:48;;;;;;;;;;;;;;;9.67;100.00;99412.22;5052155;28;20032;-75
2022/04/20 01:05:17;;;;;;;;;;;;;;;9.87;100.00;99409.66;5035601;28;20318;-74
2022/04/20 01:08:04;;;;;;;;;;;;;;;9.38;100.00;99408.00;5053676;28;19925;-74
2022/04/20 01:11:06;;;;;;;;;;;;;;;9.11;100.00;99413.34;5031191;28;19932;-74
2022/04/20 01:13:54;;;;;;;;;;;;;;;10.00;100.00;99396.78;5031028;28;19960;-75
2022/04/20 01:16:55;;;;;;;;;;;;;;;9.88;100.00;99388.91;5014739;28;20372;-74
2022/04/20 01:19:51;;;;;;;;;;;;;;;9.88;100.00;99381.34;5030932;28;20369;-74
2022/04/20 01:22:42;;;;;;;;;;;;;;;9.77;100.00;99385.44;5011262;28;19952;-75
2022/04/20 01:25:35;;;;;;;;;;;;;;;9.48;100.00;99395.22;5011196;28;19933;-74
2022/04/20 01:28:17;;;;;;;;;;;;;;;9.75;100.00;99382.25;5011389;28;19926;-75
2022/04/20 01:31:14;;;;;;;;;;;;;;;10.09;100.00;99391.56;5010913;28;19926;-75
2022/04/20 01:33:56;;;;;;;;;;;;;;;9.83;100.00;99379.00;4994809;28;19941;-75
2022/04/20 01:36:23;;;;;;;;;;;;;;;9.91;100.00;99385.31;5011325;28;20353;-75
2022/04/20 01:38:50;;;;;;;;;;;;;;;10.18;100.00;99397.47;4994857;28;20028;-74
2022/04/20 01:41:18;;;;;;;;;;;;;;;10.23;100.00;99397.03;4994969;28;19932;-75
2022/04/20 01:43:46;;;;;;;;;;;;;;;9.57;100.00;99404.72;5013144;28;19932;-75
2022/04/20 01:46:19;;;;;;;;;;;;;;;9.40;100.00;99404.81;4995728;28;19936;-75
2022/04/20 01:49:01;;;;;;;;;;;;;;;9.65;100.00;99405.47;4979078;28;20336;-75
2022/04/20 01:51:54;;;;;;;;;;;;;;;9.91;100.00;99410.44;4995510;28;19955;-75
2022/04/20 01:54:39;;;;;;;;;;;;;;;9.96;100.00;99405.22;4979067;28;19930;-75
2022/04/20 01:57:23;;;;;;;;;;;;;;;9.83;100.00;99400.53;4979060;28;19926;-75
2022/04/20 01:59:52;;;;;;;;;;;;;;;9.53;100.00;99403.13;5017277;28;19925;-74
2022/04/20 02:02:49;;;;;;;;;;;;;;;9.60;100.00;99403.91;5036987;28;19929;-75
2022/04/20 02:05:24;;;;;;;;;;;;;;;9.99;100.00;99403.59;5036835;28;20010;-74
2022/04/20 02:08:17;;;;;;;;;;;;;;;9.76;100.00;99404.16;5034018;28;20415;-75
2022/04/20 02:11:04;;;;;;;;;;;;;;;9.58;100.00;99406.28;5018452;28;19941;-74
2022/04/20 02:13:32;;;;;;;;;;;;;;;9.32;100.00;99403.25;5036314;28;19925;-75
2022/04/20 02:16:02;;;;;;;;;;;;;;;9.18;100.00;99407.72;5052033;28;19995;-74
2022/04/20 02:18:29;;;;;;;;;;;;;;;9.24;100.00;99402.50;5036616;28;20027;-74
2022/04/20 02:21:13;;;;;;;;;;;;;;;8.83;100.00;99401.53;5052119;28;19975;-74
2022/04/20 02:23:40;;;;;;;;;;;;;;;9.63;100.00;99407.84;5051689;28;20289;-74
2022/04/20 02:26:07;;;;;;;;;;;;;;;9.27;100.00;99403.69;5035389;28;19925;-74
2022/04/20 02:28:34;;;;;;;;;;;;;;;9.30;100.00;99400.09;5068193;28;19972;-75
2022/04/20 02:31:05;;;;;;;;;;;;;;;9.30;100.00;99403.66;5052451;28;20433;-75
2022/04/20 02:33:32;;;;;;;;;;;;;;;9.36;100.00;99398.47;5052327;28;20422;-76
2022/04/20 02:35:59;;;;;;;;;;;;;;;9.33;100.00;99400.06;5051963;28;19974;-76
2022/04/20 02:38:27;;;;;;;;;;;;;;;9.33;100.00;99405.63;5067743;28;19932;-76
2022/04/20 02:40:54;;;;;;;;;;;;;;;9.45;100.00;99396.78;5052370;28;19931;-77
2022/04/20 02:43:21;;;;;;;;;;;;;;;9.65;100.00;99394.31;5084936;28;19929;-76
2022/04/20 02:45:48;;;;;;;;;;;;;;;9.48;100.00;99401.56;5034276;28;20316;-77
2022/04/20 02:48:15;;;;;;;;;;;;;;;9.65;100.00;99402.66;5051024;28;19932;-76
2022/04/20 02:50:43;;;;;;;;;;;;;;;9.65;100.00;99400.66;5052853;28;19935;-77
2022/04/20 02:53:12;;;;;;;;;;;;;;;9.42;100.00;99402.41;5067215;28;19925;-77
2022/04/20 02:55:42;;;;;;;;;;;;;;;9.30;100.00;99403.66;5050481;28;19932;-77
2022/04/20 02:58:10;;;;;;;;;;;;;;;9.52;100.00;99404.34;5084663;28;20360;-76
2022/04/20 03:00:40;;;;;;;;;;;;;;;9.52;100.00;99401.53;5051366;28;19925;-77
2022/04/20 03:03:21;;;;;;;;;;;;;;;9.28;100.00;99403.28;5051148;28;19947;-76
2022/04/20 03:05:50;;;;;;;;;;;;;;;9.23;100.00;99405.69;5052532;28;19933;-75
2022/04/20 03:08:17;;;;;;;;;;;;;;;9.24;100.00;99410.09;5036244;28;20349;-75
2022/04/20 03:10:44;;;;;;;;;;;;;;;9.54;100.00;99410.31;5054412;28;19932;-75
2022/04/20 03:13:12;;;;;;;;;;;;;;;9.46;100.00;99403.19;5054162;28;19925;-75
2022/04/20 03:15:39;;;;;;;;;;;;;;;9.34;100.00;99406.44;5054438;28;20326;-75
2022/04/20 03:18:07;;;;;;;;;;;;;;;9.43;100.00;99410.38;5037805;28;20078;-75
2022/04/20 03:20:34;;;;;;;;;;;;;;;9.54;100.00;99404.72;5055442;28;19932;-75
2022/04/20 03:23:01;;;;;;;;;;;;;;;9.24;100.00;99407.31;5054146;28;20035;-75
2022/04/20 03:25:28;;;;;;;;;;;;;;;9.50;100.00;99409.50;5037790;28;19924;-75
2022/04/20 03:28:09;;;;;;;;;;;;;;;9.53;100.00;99406.72;5054011;28;19955;-75
2022/04/20 03:30:38;;;;;;;;;;;;;;;9.32;100.00;99403.25;5053659;28;19925;-75
2022/04/20 03:33:06;;;;;;;;;;;;;;;9.45;100.00;99405.16;5053505;28;20292;-75
2022/04/20 03:35:33;;;;;;;;;;;;;;;9.40;100.00;99402.81;5087037;28;19947;-75
2022/04/20 03:38:03;;;;;;;;;;;;;;;9.39;100.00;99406.03;5053358;28;20415;-75
2022/04/20 03:40:30;;;;;;;;;;;;;;;9.30;100.00;99416.84;5053233;28;19951;-75
2022/04/20 03:42:57;;;;;;;;;;;;;;;9.39;100.00;99406.03;5053130;28;19925;-75
2022/04/20 03:45:24;;;;;;;;;;;;;;;9.75;100.00;99404.56;5053344;28;19925;-75
2022/04/20 03:47:51;;;;;;;;;;;;;;;10.05;100.00;99407.53;5053629;28;19931;-75
2022/04/20 03:50:18;;;;;;;;;;;;;;;9.90;100.00;99401.28;5037036;28;19978;-75
2022/04/20 03:52:45;;;;;;;;;;;;;;;9.99;100.00;99406.38;5087024;28;20268;-75
2022/04/20 03:55:13;;;;;;;;;;;;;;;9.82;100.00;99418.47;5053033;28;19925;-75
2022/04/20 03:57:40;;;;;;;;;;;;;;;9.38;100.00;99412.78;5053277;28;19925;-75
2022/04/20 04:00:08;;;;;;;;;;;;;;;9.65;100.00;99419.41;5053430;28;19963;-75
2022/04/20 04:02:42;;;;;;;;;;;;;;;9.55;100.00;99412.69;5054527;28;20399;-75
2022/04/20 04:05:14;;;;;;;;;;;;;;;9.38;100.00;99413.59;5052624;28;20527;-75
2022/04/20 04:07:49;;;;;;;;;;;;;;;9.45;100.00;99415.53;5053254;28;19956;-75
2022/04/20 04:10:22;;;;;;;;;;;;;;;9.74;100.00;99425.31;5052842;28;20074;-75
2022/04/20 04:12:57;;;;;;;;;;;;;;;9.48;100.00;99409.16;5053121;28;19968;-75
2022/04/20 04:15:26;;;;;;;;;;;;;;;9.67;100.00;99415.00;5053078;28;19929;-75
2022/04/20 04:17:58;;;;;;;;;;;;;;;9.61;100.00;99422.22;5053083;28;19978;-75
2022/04/20 04:20:29;;;;;;;;;;;;;;;9.55;100.00;99409.91;5053016;28;19975;-75
2022/04/20 04:22:58;;;;;;;;;;;;;;;9.43;100.00;99412.34;5052763;28;20011;-75
2022/04/20 04:25:40;;;;;;;;;;;;;;;9.58;100.00;99411.06;5053987;28;20315;-75
2022/04/20 04:28:09;;;;;;;;;;;;;;;9.54;100.00;99399.94;5036379;28;20355;-75
2022/04/20 04:30:40;;;;;;;;;;;;;;;9.43;100.00;99401.19;5052837;28;19932;-75
2022/04/20 04:33:08;;;;;;;;;;;;;;;9.39;100.00;99409.59;5036138;28;20372;-75
2022/04/20 04:35:35;;;;;;;;;;;;;;;9.71;100.00;99403.81;5052746;28;19925;-75
2022/04/20 04:38:07;;;;;;;;;;;;;;;10.13;100.00;99400.72;5052653;28;19925;-75
2022/04/20 04:40:34;;;;;;;;;;;;;;;10.18;100.00;99405.84;5069336;28;19925;-75
2022/04/20 04:43:03;;;;;;;;;;;;;;;9.76;100.00;99403.38;5033974;28;20048;-75
2022/04/20 04:48:36;;;;;;;;;;;;;;;9.19;100.00;99411.31;5069262;28;20283;-75
2022/04/20 04:51:05;;;;;;;;;;;;;;;9.25;100.00;99406.09;5052657;28;19924;-75
2022/04/20 04:53:33;;;;;;;;;;;;;;;9.00;100.00;99406.19;5052091;28;19925;-75
2022/04/20 04:56:04;;;;;;;;;;;;;;;8.88;100.00;99418.59;5052609;28;19924;-75
2022/04/20 04:58:38;;;;;;;;;;;;;;;8.76;100.00;99410.69;5052508;28;19929;-75
2022/04/20 05:01:05;;;;;;;;;;;;;;;8.83;100.00;99419.00;5052385;28;19925;-75
2022/04/20 05:03:32;;;;;;;;;;;;;;;9.09;100.00;99409.34;5052300;28;20284;-75
2022/04/20 05:05:59;;;;;;;;;;;;;;;8.57;100.00;99419.47;5052290;28;19932;-75
2022/04/20 05:08:50;;;;;;;;;;;;;;;8.78;100.00;99408.28;5053389;28;19978;-75
2022/04/20 05:11:18;;;;;;;;;;;;;;;9.02;100.00;99418.56;5052414;28;20437;-75
2022/04/20 05:13:45;;;;;;;;;;;;;;;8.78;100.00;99413.06;5052126;28;20020;-75
2022/04/20 05:16:12;;;;;;;;;;;;;;;8.95;100.00;99413.00;5052371;28;20260;-75
2022/04/20 05:18:40;;;;;;;;;;;;;;;9.06;100.00;99418.53;5039703;28;20343;-75
2022/04/20 05:21:07;;;;;;;;;;;;;;;9.18;100.00;99416.09;5057367;28;20384;-75
2022/04/20 05:23:34;;;;;;;;;;;;;;;9.59;100.00;99413.44;5056047;28;20291;-75
2022/04/20 05:26:02;;;;;;;;;;;;;;;9.53;100.00;99419.84;5056252;28;19929;-75
2022/04/20 05:28:32;;;;;;;;;;;;;;;9.52;100.00;99409.91;5056251;28;19929;-75
2022/04/20 05:30:59;;;;;;;;;;;;;;;9.53;100.00;99414.28;5056312;28;20276;-75
2022/04/20 05:33:26;;;;;;;;;;;;;;;9.08;100.00;99419.72;5055995;28;19925;-75
2022/04/20 05:35:53;;;;;;;;;;;;;;;9.26;100.00;99416.84;5055922;28;20375;-75
2022/04/20 05:43:54;;;;;;;;;;;;;;;9.10;100.00;99413.75;5038962;28;20352;-75
2022/04/20 05:46:25;;;;;;;;;;;;;;;9.39;100.00;99414.38;5055779;28;20380;-75
2022/04/20 05:48:59;;;;;;;;;;;;;;;9.08;100.00;99413.34;5054424;28;20304;-75
2022/04/20 05:51:27;;;;;;;;;;;;;;;9.73;100.00;99418.13;5055498;28;19925;-75
2022/04/20 05:53:54;;;;;;;;;;;;;;;10.20;100.00;99409.81;5055596;28;20019;-75
2022/04/20 05:56:22;;;;;;;;;;;;;;;10.74;100.00;99410.84;5038976;28;19925;-75
2022/04/20 05:58:52;;;;;;;;;;;;;;;11.28;100.00;99401.41;5055413;28;20356;-75
2022/04/20 06:01:22;;;;;;;;;;;;;;;11.49;100.00;99392.72;5056669;28;19964;-75
2022/04/20 06:03:52;;;;;;;;;;;;;;;11.59;100.00;99393.75;5054357;28;20237;-76
2022/04/20 06:06:37;;;;;;;;;;;;;;;10.90;100.00;99397.09;5052802;28;19932;-76
2022/04/20 06:09:23;;;;;;;;;;;;;;;11.28;100.00;99404.22;5038360;28;19940;-76
2022/04/20 06:11:52;;;;;;;;;;;;;;;11.13;100.00;99400.03;5055480;28;20364;-75
2022/04/20 06:14:24;;;;;;;;;;;;;;;11.12;100.00;99397.66;5056118;28;19931;-75
2022/04/20 06:17:15;;;;;;;;;;;;;;;10.78;100.00;99397.66;5054044;28;19924;-75
2022/04/20 06:19:54;;;;;;;;;;;;;;;10.45;100.00;99404.78;5070609;28;19925;-76
2022/04/20 06:22:32;;;;;;;;;;;;;;;10.39;100.00;99406.44;5070177;28;19947;-76
2022/04/20 06:25:20;;;;;;;;;;;;;;;10.93;100.00;99390.69;5037474;28;19932;-75
2022/04/20 06:28:12;;;;;;;;;;;;;;;10.84;100.00;99382.78;5029294;28;20387;-76
2022/04/20 06:30:56;;;;;;;;;;;;;;;10.60;100.00;99392.25;5021560;28;20322;-77
2022/04/20 06:33:57;;;;;;;;;;;;;;;11.22;100.00;99393.91;5029966;28;19956;-77
2022/04/20 06:36:40;;;;;;;;;;;;;;;11.39;100.00;99385.25;5013529;28;20475;-77
2022/04/20 06:39:33;;;;;;;;;;;;;;;11.80;100.00;99388.66;5013741;28;20377;-77
2022/04/20 06:42:23;;;;;;;;;;;;;;;12.13;100.00;99390.50;5033266;28;20451;-77
2022/04/20 06:45:04;;;;;;;;;;;;;;;12.28;100.00;99386.25;5016447;28;20396;-77
2022/04/20 06:47:50;;;;;;;;;;;;;;;12.32;100.00;99384.19;5016914;28;20015;-77
2022/04/20 06:50:23;;;;;;;;;;;;;;;12.97;100.00;99387.34;5033257;28;20400;-77
2022/04/20 06:58:32;;;;;;;;;;;;;;;14.39;100.00;99381.63;5031078;28;19932;-76
2022/04/20 07:01:07;;;;;;;;;;;;;;;14.79;100.00;99370.91;5027256;28;19928;-76
2022/04/20 07:03:59;;;;;;;;;;;;;;;14.29;100.00;99388.34;5035632;28;19928;-75
2022/04/20 07:06:45;;;;;;;;;;;;;;;14.87;100.00;99383.56;5049272;28;19964;-75
2022/04/20 07:09:24;;;;;;;;;;;;;;;14.23;100.00;99385.28;5013064;28;20019;-74
2022/04/20 07:12:11;;;;;;;;;;;;;;;14.62;100.00;99394.69;5032595;28;20285;-75
2022/04/20 07:14:40;;;;;;;;;;;;;;;15.01;100.00;99392.38;5032281;28;20458;-74
2022/04/20 07:17:07;;;;;;;;;;;;;;;15.52;100.00;99385.66;5027207;28;19932;-74
2022/04/20 07:19:45;;;;;;;;;;;;;;;16.19;100.00;99375.03;5039213;28;19929;-74
2022/04/20 07:22:34;;;;;;;;;;;;;;;16.15;100.00;99377.97;5049914;28;19975;-75
2022/04/20 07:25:08;;;;;;;;;;;;;;;16.04;100.00;99383.16;5049148;28;19928;-75
2022/04/20 07:27:49;;;;;;;;;;;;;;;15.77;100.00;99385.66;5050657;28;19932;-75
2022/04/20 07:30:44;;;;;;;;;;;;;;;15.72;100.00;99372.13;5050172;28;19925;-75
2022/04/20 07:33:30;;;;;;;;;;;;;;;15.60;100.00;99372.91;5044091;28;19932;-76
2022/04/20 07:36:26;;;;;;;;;;;;;;;15.56;100.00;99374.28;5046408;28;20387;-76
2022/04/20 07:39:04;;;;;;;;;;;;;;;15.30;100.00;99370.59;5031658;28;20054;-78
2022/04/20 07:41:50;;;;;;;;;;;;;;;14.71;100.00;99381.56;5048692;28;19932;-78
2022/04/20 07:44:20;;;;;;;;;;;;;;;15.57;100.00;99376.63;5032359;28;19925;-78
2022/04/20 07:46:55;;;;;;;;;;;;;;;15.59;100.00;99377.00;5032550;28;19975;-75
2022/04/20 07:52:51;;;;;;;;;;;;;;;16.19;100.00;99369.41;5032158;28;19925;-77
2022/04/20 07:55:33;;;;;;;;;;;;;;;15.76;100.00;99364.38;5015449;28;19925;-79
2022/04/20 07:58:06;;;;;;;;;;;;;;;15.47;100.00;99366.50;5032593;28;19925;-78
2022/04/20 08:00:37;;;;;;;;;;;;;;;15.57;100.00;99371.00;5032958;28;19967;-78
2022/04/20 08:03:22;;;;;;;;;;;;;;;16.17;100.00;99369.88;5049020;28;19935;-79
2022/04/20 08:05:51;;;;;;;;;;;;;;;15.62;100.00;99373.28;5031962;28;19928;-79
2022/04/20 08:08:18;;;;;;;;;;;;;;;15.17;100.00;99369.81;5031792;28;19925;-78
2022/04/20 08:10:45;;;;;;;;;;;;;;;16.68;100.00;99364.88;5032445;28;19925;-79
2022/04/20 08:16:02;;;;;;;;;;;;;;;15.66;100.00;99371.13;5066517;28;19935;-78
2022/04/20 08:18:40;;;;;;;;;;;;;;;16.20;100.00;99357.69;5066651;28;19937;-79
2022/04/20 08:21:25;;;;;;;;;;;;;;;16.17;100.00;99352.16;5050802;28;19925;-79
2022/04/20 08:23:53;;;;;;;;;;;;;;;15.96;100.00;99352.88;5051261;28;19974;-78
2022/04/20 08:26:20;;;;;;;;;;;;;;;17.36;100.00;99352.66;5049696;28;19949;-79
2022/04/20 08:28:47;;;;;;;;;;;;;;;17.73;100.00;99351.63;5050778;28;20419;-79
2022/04/20 08:31:15;;;;;;;;;;;;;;;17.12;100.00;99346.72;5050428;28;19924;-78
2022/04/20 08:33:42;;;;;;;;;;;;;;;16.62;100.00;99343.34;5053018;28;19925;-79
2022/04/20 08:36:13;;;;;;;;;;;;;;;16.79;100.00;99353.22;5052037;28;19928;-78
2022/04/20 08:38:40;;;;;;;;;;;;;;;16.55;100.00;99349.25;5054009;28;19932;-78
2022/04/20 08:41:10;;;;;;;;;;;;;;;15.97;100.00;99352.41;5086396;28;20062;-77
2022/04/20 08:43:39;;;;;;;;;;;;;;;16.36;100.00;99353.91;5047500;28;19948;-76
2022/04/20 08:46:08;;;;;;;;;;;;;;;14.96;100.00;99356.38;5050487;28;20079;-77
2022/04/20 08:48:35;;;;;;;;;;;;;;;15.20;100.00;99349.22;5050220;28;19932;-75
2022/04/20 08:51:03;;;;;;;;;;;;;;;15.70;100.00;99346.47;5049791;28;19928;-76
2022/04/20 08:53:31;;;;;;;;;;;;;;;15.74;100.00;99344.31;5049915;28;19947;-75
2022/04/20 08:58:46;;;;;;;;;;;;;;;15.81;100.00;99346.88;5040303;28;19944;-75
2022/04/20 09:01:14;;;;;;;;;;;;;;;15.92;100.00;99347.34;5049676;28;19925;-75
2022/04/20 09:03:42;;;;;;;;;;;;;;;16.31;100.00;99346.03;5049788;28;19975;-73
2022/04/20 09:06:09;;;;;;;;;;;;;;;16.66;100.00;99338.38;5049189;28;19977;-76
2022/04/20 09:08:38;;;;;;;;;;;;;;;15.58;100.00;99338.81;5050062;28;19925;-74
2022/04/20 09:11:05;;;;;;;;;;;;;;;15.79;100.00;99348.59;5049713;28;19929;-75
2022/04/20 09:13:35;;;;;;;;;;;;;;;15.46;100.00;99335.97;5050897;28;19956;-74
2022/04/20 09:16:06;;;;;;;;;;;;;;;15.46;100.00;99339.59;5051549;28;19929;-74
2022/04/20 09:18:33;;;;;;;;;;;;;;;16.06;100.00;99341.22;5048882;28;20030;-74
2022/04/20 09:21:08;;;;;;;;;;;;;;;15.90;100.00;99332.91;5052014;28;19924;-74
2022/04/20 09:23:35;;;;;;;;;;;;;;;15.98;100.00;99331.44;5051805;28;19931;-74
2022/04/20 09:26:10;;;;;;;;;;;;;;;15.75;100.00;99328.22;5052914;28;20403;-73
2022/04/20 09:28:39;;;;;;;;;;;;;;;16.03;100.00;99322.41;5053135;28;19956;-73
2022/04/20 09:31:07;;;;;;;;;;;;;;;16.21;100.00;99314.13;5051368;28;19928;-74
2022/04/20 09:33:53;;;;;;;;;;;;;;;15.73;100.00;99310.97;5082936;28;19964;-74
2022/04/20 09:36:49;;;;;;;;;;;;;;;15.98;100.00;99317.34;5053221;28;20333;-74
2022/04/20 09:39:16;;;;;;;;;;;;;;;16.08;100.00;99316.19;5053439;28;19925;-74
2022/04/20 09:41:58;;;;;;;;;;;;;;;15.96;100.00;99300.09;5051784;28;20560;-74
2022/04/20 09:44:26;;;;;;;;;;;;;;;15.31;100.00;99309.47;5050439;28;19936;-74
2022/04/20 09:49:54;;;;;;;;;;;;;;;15.43;100.00;99298.25;5053245;28;19933;-74
2022/04/20 09:52:22;;;;;;;;;;;;;;;15.69;100.00;99299.78;5051069;28;19925;-74
2022/04/20 09:54:53;;;;;;;;;;;;;;;15.68;100.00;99289.78;5052841;28;19931;-74
2022/04/20 09:57:21;;;;;;;;;;;;;;;15.53;100.00;99302.75;5053261;28;20371;-74
2022/04/20 09:59:54;;;;;;;;;;;;;;;15.42;100.00;99293.06;5052923;28;19925;-74
2022/04/20 10:02:52;;;;;;;;;;;;;;;15.36;100.00;99287.16;5051931;28;19924;-74
2022/04/20 10:05:21;;;;;;;;;;;;;;;15.92;100.00;99293.78;5056121;28;19970;-74
2022/04/20 10:07:51;;;;;;;;;;;;;;;15.51;100.00;99288.31;5056780;28;19933;-74
2022/04/20 10:10:18;;;;;;;;;;;;;;;15.59;100.00;99289.69;5056624;28;19924;-74
2022/04/20 10:12:46;;;;;;;;;;;;;;;15.42;100.00;99276.19;5056059;28;19929;-75
2022/04/20 10:18:00;;;;;;;;;;;;;;;15.65;100.00;99279.41;5056568;28;19924;-74
2022/04/20 10:20:31;;;;;;;;;;;;;;;15.89;100.00;99269.34;5088624;28;19932;-74
2022/04/20 10:23:01;;;;;;;;;;;;;;;16.71;100.00;99275.69;5056432;28;20427;-74
2022/04/20 10:25:31;;;;;;;;;;;;;;;16.39;100.00;99267.63;5056293;28;19931;-74
2022/04/20 10:27:58;;;;;;;;;;;;;;;16.32;100.00;99262.22;5055912;28;20390;-74
2022/04/20 10:30:52;;;;;;;;;;;;;;;15.77;100.00;99256.06;5056303;28;20377;-74
2022/04/20 10:33:20;;;;;;;;;;;;;;;16.05;100.00;99257.91;5036770;28;20300;-75
2022/04/20 10:36:01;;;;;;;;;;;;;;;16.35;100.00;99255.66;5052264;28;20067;-74
2022/04/20 10:38:32;;;;;;;;;;;;;;;16.33;100.00;99246.88;5054813;28;20380;-74
2022/04/20 10:41:21;;;;;;;;;;;;;;;16.42;100.00;99255.41;5054523;28;19931;-74
2022/04/20 10:44:03;;;;;;;;;;;;;;;15.87;100.00;99254.91;5088093;28;19937;-74
2022/04/20 10:46:30;;;;;;;;;;;;;;;15.90;100.00;99254.00;5054283;28;19925;-74
2022/04/20 10:49:00;;;;;;;;;;;;;;;15.61;100.00;99252.63;5051931;28;19925;-74
2022/04/20 10:51:34;;;;;;;;;;;;;;;16.40;100.00;99253.06;5055541;28;19932;-74
2022/04/20 10:54:20;;;;;;;;;;;;;;;15.79;100.00;99247.16;5055652;28;19924;-74
2022/04/20 10:57:00;;;;;;;;;;;;;;;15.83;100.00;99245.00;5054247;28;19928;-74
2022/04/20 10:59:30;;;;;;;;;;;;;;;15.90;100.00;99250.41;5054528;28;20022;-74
2022/04/20 11:02:03;;;;;;;;;;;;;;;16.32;100.00;99239.66;5055664;28;19924;-74
2022/04/20 11:04:39;;;;;;;;;;;;;;;16.25;100.00;99241.50;5055491;28;19992;-74
2022/04/20 11:07:06;;;;;;;;;;;;;;;15.86;100.00;99242.06;5053946;28;19925;-74
2022/04/20 11:09:42;;;;;;;;;;;;;;;15.82;100.00;99235.78;5054757;28;19936;-74
2022/04/20 11:21:07;;;;;;;;;;;;;;;16.59;100.00;99226.59;5070006;28;19925;-74
2022/04/20 11:24:01;;;;;;;;;;;;;;;16.61;100.00;99226.13;5054395;28;19931;-74
2022/04/20 11:26:41;;;;;;;;;;;;;;;16.34;100.00;99226.69;5054248;28;19931;-74
2022/04/20 11:29:11;;;;;;;;;;;;;;;16.38;100.00;99220.91;5054694;28;19931;-74
2022/04/20 11:31:40;;;;;;;;;;;;;;;16.01;100.00;99226.25;5054567;28;19932;-74
2022/04/20 11:34:07;;;;;;;;;;;;;;;16.17;100.00;99225.31;5086598;28;19925;-74
2022/04/20 11:36:37;;;;;;;;;;;;;;;16.33;100.00;99218.69;5052900;28;19924;-74
2022/04/20 11:39:05;;;;;;;;;;;;;;;16.18;100.00;99215.59;5054007;28;19925;-74
2022/04/20 11:41:34;;;;;;;;;;;;;;;16.03;100.00;99212.50;5053237;28;19925;-74
2022/04/20 11:44:02;;;;;;;;;;;;;;;15.64;100.00;99212.28;5054086;28;19931;-74
2022/04/20 11:46:31;;;;;;;;;;;;;;;15.62;100.00;99209.13;5054023;28;19924;-74
2022/04/20 11:49:01;;;;;;;;;;;;;;;16.32;100.00;99198.16;5054047;28;19925;-73
2022/04/20 11:51:38;;;;;;;;;;;;;;;16.37;100.00;99202.41;5052859;28;19925;-74
2022/04/20 11:54:06;;;;;;;;;;;;;;;16.04;100.00;99208.44;5053740;28;19929;-74
2022/04/20 11:56:42;;;;;;;;;;;;;;;15.73;100.00;99204.72;5067868;28;19928;-74
2022/04/20 11:59:09;;;;;;;;;;;;;;;16.03;100.00;99201.22;5052432;28;19931;-74
2022/04/20 12:01:38;;;;;;;;;;;;;;;16.59;100.00;99203.22;5053702;28;19957;-74
2022/04/20 12:04:16;;;;;;;;;;;;;;;17.20;100.00;99195.56;5052812;28;19924;-74
2022/04/20 12:06:49;;;;;;;;;;;;;;;17.07;100.00;99192.03;5053606;28;20456;-74
2022/04/20 12:09:19;;;;;;;;;;;;;;;16.55;100.00;99186.44;5053463;28;20355;-74
2022/04/20 12:11:47;;;;;;;;;;;;;;;16.87;100.00;99196.50;5053572;28;19925;-74
2022/04/20 12:14:15;;;;;;;;;;;;;;;16.98;100.00;99175.06;5050601;28;19925;-74
2022/04/20 12:16:43;;;;;;;;;;;;;;;16.97;100.00;99178.34;5052188;28;19951;-74
2022/04/20 12:19:14;;;;;;;;;;;;;;;16.64;100.00;99182.88;5052077;28;19990;-74
2022/04/20 12:21:46;;;;;;;;;;;;;;;17.02;100.00;99174.94;5052658;28;20066;-74
2022/04/20 12:24:25;;;;;;;;;;;;;;;17.11;100.00;99175.75;5047326;28;19925;-74
2022/04/20 12:26:54;;;;;;;;;;;;;;;17.23;100.00;99172.03;5048768;28;20287;-74
2022/04/20 12:29:24;;;;;;;;;;;;;;;16.78;100.00;99176.69;5052763;28;19985;-75
2022/04/20 12:31:55;;;;;;;;;;;;;;;16.66;100.00;99166.28;5051900;28;20291;-74
2022/04/20 12:34:25;;;;;;;;;;;;;;;16.37;100.00;99179.88;5069023;28;20011;-74
2022/04/20 12:36:55;;;;;;;;;;;;;;;16.52;100.00;99164.00;5052413;28;19968;-74
2022/04/20 12:39:24;;;;;;;;;;;;;;;16.41;100.00;99158.75;5052368;28;19924;-74
2022/04/20 12:41:55;;;;;;;;;;;;;;;16.52;100.00;99147.88;5053523;28;20450;-74
2022/04/20 12:44:38;;;;;;;;;;;;;;;16.33;100.00;99151.78;5053656;28;19929;-75
2022/04/20 12:47:14;;;;;;;;;;;;;;;16.32;100.00;99150.22;5052074;28;20448;-75
2022/04/20 12:49:43;;;;;;;;;;;;;;;16.38;100.00;99144.78;5085793;28;20029;-74
2022/04/20 12:52:12;;;;;;;;;;;;;;;16.75;100.00;99144.53;5053112;28;20380;-74
2022/04/20 12:54:40;;;;;;;;;;;;;;;16.64;100.00;99138.53;5052708;28;19925;-75
2022/04/20 13:03:05;;;;;;;;;;;;;;;17.28;100.00;99131.09;5053421;28;20434;-75
2022/04/20 13:05:33;;;;;;;;;;;;;;;16.78;100.00;99125.91;5053500;28;20397;-75
2022/04/20 13:08:00;;;;;;;;;;;;;;;16.51;100.00;99137.81;5052142;28;19925;-75
2022/04/20 13:10:29;;;;;;;;;;;;;;;16.67;100.00;99125.53;5053493;28;20398;-75
2022/04/20 13:12:57;;;;;;;;;;;;;;;16.89;100.00;99131.91;5053239;28;19925;-75
2022/04/20 13:15:29;;;;;;;;;;;;;;;16.66;100.00;99118.34;5035743;28;19951;-75
2022/04/20 13:17:57;;;;;;;;;;;;;;;16.82;100.00;99109.63;5053368;28;19924;-75
2022/04/20 13:20:27;;;;;;;;;;;;;;;17.02;100.00;99118.47;5053511;28;19928;-75
2022/04/20 13:22:54;;;;;;;;;;;;;;;16.62;100.00;99107.19;5053051;28;20395;-75
2022/04/20 13:28:07;;;;;;;;;;;;;;;16.63;100.00;99105.91;5053350;28;19931;-75
2022/04/20 13:30:36;;;;;;;;;;;;;;;16.83;100.00;99105.53;5053345;28;20015;-75
2022/04/20 13:33:08;;;;;;;;;;;;;;;17.14;100.00;99097.81;5053191;28;20334;-75
2022/04/20 13:35:36;;;;;;;;;;;;;;;16.59;100.00;99096.81;5052979;28;19924;-75
2022/04/20 13:38:07;;;;;;;;;;;;;;;17.01;100.00;99099.97;5054437;28;20403;-75
2022/04/20 13:40:36;;;;;;;;;;;;;;;17.08;100.00;99082.72;5057195;28;19929;-75
2022/04/20 13:43:03;;;;;;;;;;;;;;;17.28;100.00;99092.34;5057107;28;19924;-75
2022/04/20 13:45:31;;;;;;;;;;;;;;;16.87;100.00;99084.41;5056874;28;20277;-75
2022/04/20 13:47:58;;;;;;;;;;;;;;;17.27;100.00;99082.31;5055637;28;19925;-75
2022/04/20 13:50:25;;;;;;;;;;;;;;;17.05;100.00;99083.66;5056829;28;20054;-75
2022/04/20 13:52:55;;;;;;;;;;;;;;;17.16;100.00;99072.72;5056893;28;20028;-75
2022/04/20 13:55:22;;;;;;;;;;;;;;;17.62;100.00;99063.06;5055775;28;19925;-75